sensor_id;sensor_type;location;lat;lon;timestamp;P1;durP1;ratioP1;P2;durP2;ratioP2
59366;SDS011;45163;47.690;11.770;2023-04-25T00:00:00;4.97;;;2.20;;
59366;SDS011;45163;47.690;11.770;2023-04-25T00:02:26;5.53;;;2.17;;
59366;SDS011;45163;47.690;11.770;2023-04-25T00:04:53;3.40;;;2.00;;
59366;SDS011;45163;47.690;11.770;2023-04-25T00:07:22;4.37;;;2.20;;
59366;SDS011;45163;47.690;11.770;2023-04-25T00:09:48;5.77;;;2.10;;
59366;SDS011;45163;47.690;11.770;2023-04-25T00:12:14;3.00;;;1.83;;
59366;SDS011;45163;47.690;11.770;2023-04-25T00:14:41;3.20;;;1.80;;
59366;SDS011;45163;47.690;11.770;2023-04-25T00:17:07;3.07;;;2.23;;
59366;SDS011;45163;47.690;11.770;2023-04-25T00:19:36;3.10;;;2.30;;
59366;SDS011;45163;47.690;11.770;2023-04-25T00:22:03;3.43;;;2.17;;
59366;SDS011;45163;47.690;11.770;2023-04-25T00:24:31;1.90;;;1.70;;
59366;SDS011;45163;47.690;11.770;2023-04-25T00:26:57;2.30;;;1.80;;
59366;SDS011;45163;47.690;11.770;2023-04-25T00:29:22;2.73;;;1.90;;
59366;SDS011;45163;47.690;11.770;2023-04-25T00:31:48;3.27;;;2.20;;
59366;SDS011;45163;47.690;11.770;2023-04-25T00:34:14;2.27;;;1.80;;
59366;SDS011;45163;47.690;11.770;2023-04-25T00:36:40;3.37;;;1.90;;
59366;SDS011;45163;47.690;11.770;2023-04-25T00:39:06;2.33;;;1.80;;
59366;SDS011;45163;47.690;11.770;2023-04-25T00:41:33;2.90;;;2.03;;
59366;SDS011;45163;47.690;11.770;2023-04-25T00:43:59;3.60;;;2.27;;
59366;SDS011;45163;47.690;11.770;2023-04-25T00:46:26;2.50;;;2.07;;
59366;SDS011;45163;47.690;11.770;2023-04-25T00:48:52;4.23;;;2.30;;
59366;SDS011;45163;47.690;11.770;2023-04-25T00:51:19;5.20;;;2.00;;
59366;SDS011;45163;47.690;11.770;2023-04-25T00:53:46;2.10;;;1.63;;
59366;SDS011;45163;47.690;11.770;2023-04-25T00:56:14;3.93;;;2.10;;
59366;SDS011;45163;47.690;11.770;2023-04-25T00:58:41;2.67;;;1.87;;
59366;SDS011;45163;47.690;11.770;2023-04-25T01:01:08;2.67;;;2.00;;
59366;SDS011;45163;47.690;11.770;2023-04-25T01:03:34;2.03;;;1.80;;
59366;SDS011;45163;47.690;11.770;2023-04-25T01:06:09;4.03;;;1.77;;
59366;SDS011;45163;47.690;11.770;2023-04-25T01:08:37;2.60;;;1.70;;
59366;SDS011;45163;47.690;11.770;2023-04-25T01:11:04;2.80;;;1.97;;
59366;SDS011;45163;47.690;11.770;2023-04-25T01:13:31;3.17;;;1.70;;
59366;SDS011;45163;47.690;11.770;2023-04-25T01:15:58;2.00;;;1.60;;
59366;SDS011;45163;47.690;11.770;2023-04-25T01:18:25;2.00;;;1.80;;
59366;SDS011;45163;47.690;11.770;2023-04-25T01:20:51;2.73;;;1.90;;
59366;SDS011;45163;47.690;11.770;2023-04-25T01:23:18;2.10;;;1.90;;
59366;SDS011;45163;47.690;11.770;2023-04-25T01:25:48;2.93;;;1.90;;
59366;SDS011;45163;47.690;11.770;2023-04-25T01:28:15;2.47;;;2.07;;
59366;SDS011;45163;47.690;11.770;2023-04-25T01:30:41;2.77;;;2.10;;
59366;SDS011;45163;47.690;11.770;2023-04-25T01:33:08;4.17;;;2.20;;
59366;SDS011;45163;47.690;11.770;2023-04-25T01:35:35;2.87;;;2.07;;
59366;SDS011;45163;47.690;11.770;2023-04-25T01:38:01;3.63;;;2.00;;
59366;SDS011;45163;47.690;11.770;2023-04-25T01:40:27;2.53;;;1.73;;
59366;SDS011;45163;47.690;11.770;2023-04-25T01:42:53;2.33;;;2.10;;
59366;SDS011;45163;47.690;11.770;2023-04-25T01:45:19;2.73;;;2.00;;
59366;SDS011;45163;47.690;11.770;2023-04-25T01:47:46;2.30;;;1.80;;
59366;SDS011;45163;47.690;11.770;2023-04-25T01:50:16;2.87;;;2.00;;
59366;SDS011;45163;47.690;11.770;2023-04-25T01:52:44;2.77;;;1.90;;
59366;SDS011;45163;47.690;11.770;2023-04-25T01:55:10;5.60;;;2.40;;
59366;SDS011;45163;47.690;11.770;2023-04-25T01:57:36;3.23;;;2.00;;
59366;SDS011;45163;47.690;11.770;2023-04-25T02:00:03;3.67;;;2.20;;
59366;SDS011;45163;47.690;11.770;2023-04-25T02:02:32;3.70;;;2.00;;
59366;SDS011;45163;47.690;11.770;2023-04-25T02:04:58;5.03;;;2.07;;
59366;SDS011;45163;47.690;11.770;2023-04-25T02:07:25;4.03;;;2.03;;
59366;SDS011;45163;47.690;11.770;2023-04-25T02:09:52;2.87;;;1.70;;
59366;SDS011;45163;47.690;11.770;2023-04-25T02:12:18;2.00;;;1.80;;
59366;SDS011;45163;47.690;11.770;2023-04-25T02:14:44;4.97;;;2.07;;
59366;SDS011;45163;47.690;11.770;2023-04-25T02:17:10;3.17;;;1.80;;
59366;SDS011;45163;47.690;11.770;2023-04-25T02:19:35;3.10;;;1.87;;
59366;SDS011;45163;47.690;11.770;2023-04-25T02:22:01;2.90;;;1.90;;
59366;SDS011;45163;47.690;11.770;2023-04-25T02:24:27;2.37;;;1.73;;
59366;SDS011;45163;47.690;11.770;2023-04-25T02:26:53;4.17;;;1.93;;
59366;SDS011;45163;47.690;11.770;2023-04-25T02:29:21;6.30;;;2.27;;
59366;SDS011;45163;47.690;11.770;2023-04-25T02:31:47;3.27;;;2.00;;
59366;SDS011;45163;47.690;11.770;2023-04-25T02:34:13;4.30;;;1.90;;
59366;SDS011;45163;47.690;11.770;2023-04-25T02:36:42;2.27;;;1.77;;
59366;SDS011;45163;47.690;11.770;2023-04-25T02:39:08;2.17;;;1.90;;
59366;SDS011;45163;47.690;11.770;2023-04-25T02:41:34;3.50;;;1.90;;
59366;SDS011;45163;47.690;11.770;2023-04-25T02:44:00;4.93;;;2.00;;
59366;SDS011;45163;47.690;11.770;2023-04-25T02:46:26;3.17;;;2.07;;
59366;SDS011;45163;47.690;11.770;2023-04-25T02:48:52;5.47;;;2.40;;
59366;SDS011;45163;47.690;11.770;2023-04-25T02:51:18;3.20;;;2.27;;
59366;SDS011;45163;47.690;11.770;2023-04-25T02:53:44;3.17;;;1.80;;
59366;SDS011;45163;47.690;11.770;2023-04-25T02:56:10;2.43;;;2.10;;
59366;SDS011;45163;47.690;11.770;2023-04-25T02:58:36;2.63;;;2.03;;
59366;SDS011;45163;47.690;11.770;2023-04-25T03:01:02;3.83;;;1.90;;
59366;SDS011;45163;47.690;11.770;2023-04-25T03:03:28;3.77;;;2.33;;
59366;SDS011;45163;47.690;11.770;2023-04-25T03:05:54;4.33;;;2.13;;
59366;SDS011;45163;47.690;11.770;2023-04-25T03:08:20;3.30;;;2.07;;
59366;SDS011;45163;47.690;11.770;2023-04-25T03:10:46;3.80;;;2.40;;
59366;SDS011;45163;47.690;11.770;2023-04-25T03:13:12;6.63;;;1.97;;
59366;SDS011;45163;47.690;11.770;2023-04-25T03:15:38;4.03;;;2.10;;
59366;SDS011;45163;47.690;11.770;2023-04-25T03:18:04;1.97;;;1.80;;
59366;SDS011;45163;47.690;11.770;2023-04-25T03:20:30;5.47;;;2.17;;
59366;SDS011;45163;47.690;11.770;2023-04-25T03:22:56;3.30;;;2.10;;
59366;SDS011;45163;47.690;11.770;2023-04-25T03:25:22;3.77;;;2.00;;
59366;SDS011;45163;47.690;11.770;2023-04-25T03:27:48;3.23;;;2.00;;
59366;SDS011;45163;47.690;11.770;2023-04-25T03:30:14;2.73;;;1.87;;
59366;SDS011;45163;47.690;11.770;2023-04-25T03:32:40;2.57;;;2.03;;
59366;SDS011;45163;47.690;11.770;2023-04-25T03:35:06;4.63;;;2.27;;
59366;SDS011;45163;47.690;11.770;2023-04-25T03:37:32;2.63;;;2.10;;
59366;SDS011;45163;47.690;11.770;2023-04-25T03:39:58;7.10;;;2.20;;
59366;SDS011;45163;47.690;11.770;2023-04-25T03:42:24;3.20;;;2.40;;
59366;SDS011;45163;47.690;11.770;2023-04-25T03:44:50;5.33;;;2.43;;
59366;SDS011;45163;47.690;11.770;2023-04-25T03:47:17;3.83;;;2.20;;
59366;SDS011;45163;47.690;11.770;2023-04-25T03:49:43;7.67;;;2.60;;
59366;SDS011;45163;47.690;11.770;2023-04-25T03:52:10;6.93;;;2.40;;
59366;SDS011;45163;47.690;11.770;2023-04-25T03:54:36;3.60;;;2.40;;
59366;SDS011;45163;47.690;11.770;2023-04-25T03:57:02;2.20;;;2.00;;
59366;SDS011;45163;47.690;11.770;2023-04-25T03:59:28;3.27;;;2.17;;
59366;SDS011;45163;47.690;11.770;2023-04-25T04:01:54;3.03;;;2.30;;
59366;SDS011;45163;47.690;11.770;2023-04-25T04:04:20;3.37;;;2.10;;
59366;SDS011;45163;47.690;11.770;2023-04-25T04:06:46;3.77;;;2.10;;
59366;SDS011;45163;47.690;11.770;2023-04-25T04:09:12;4.60;;;2.77;;
59366;SDS011;45163;47.690;11.770;2023-04-25T04:11:38;5.67;;;2.50;;
59366;SDS011;45163;47.690;11.770;2023-04-25T04:14:05;3.80;;;2.37;;
59366;SDS011;45163;47.690;11.770;2023-04-25T04:16:32;4.03;;;2.50;;
59366;SDS011;45163;47.690;11.770;2023-04-25T04:18:58;6.30;;;2.27;;
59366;SDS011;45163;47.690;11.770;2023-04-25T04:21:24;2.47;;;2.00;;
59366;SDS011;45163;47.690;11.770;2023-04-25T04:23:50;5.30;;;2.47;;
59366;SDS011;45163;47.690;11.770;2023-04-25T04:26:16;4.33;;;2.27;;
59366;SDS011;45163;47.690;11.770;2023-04-25T04:28:43;3.87;;;2.20;;
59366;SDS011;45163;47.690;11.770;2023-04-25T04:31:10;7.00;;;2.60;;
59366;SDS011;45163;47.690;11.770;2023-04-25T04:33:36;4.50;;;2.30;;
59366;SDS011;45163;47.690;11.770;2023-04-25T04:36:03;4.33;;;2.50;;
59366;SDS011;45163;47.690;11.770;2023-04-25T04:38:29;5.33;;;2.50;;
59366;SDS011;45163;47.690;11.770;2023-04-25T04:40:55;4.30;;;2.30;;
59366;SDS011;45163;47.690;11.770;2023-04-25T04:43:21;3.60;;;2.20;;
59366;SDS011;45163;47.690;11.770;2023-04-25T04:45:48;7.37;;;2.57;;
59366;SDS011;45163;47.690;11.770;2023-04-25T04:48:16;6.70;;;2.60;;
59366;SDS011;45163;47.690;11.770;2023-04-25T04:50:44;5.77;;;2.63;;
59366;SDS011;45163;47.690;11.770;2023-04-25T04:53:11;5.93;;;2.70;;
59366;SDS011;45163;47.690;11.770;2023-04-25T04:55:37;5.40;;;3.23;;
59366;SDS011;45163;47.690;11.770;2023-04-25T04:58:03;7.97;;;3.37;;
59366;SDS011;45163;47.690;11.770;2023-04-25T05:00:29;3.87;;;2.80;;
59366;SDS011;45163;47.690;11.770;2023-04-25T05:02:56;7.10;;;2.70;;
59366;SDS011;45163;47.690;11.770;2023-04-25T05:05:22;4.77;;;2.80;;
59366;SDS011;45163;47.690;11.770;2023-04-25T05:07:48;3.40;;;2.30;;
59366;SDS011;45163;47.690;11.770;2023-04-25T05:10:14;5.00;;;3.00;;
59366;SDS011;45163;47.690;11.770;2023-04-25T05:12:40;5.20;;;2.70;;
59366;SDS011;45163;47.690;11.770;2023-04-25T05:15:06;3.37;;;2.43;;
59366;SDS011;45163;47.690;11.770;2023-04-25T05:17:32;2.87;;;2.17;;
59366;SDS011;45163;47.690;11.770;2023-04-25T05:19:58;3.53;;;2.33;;
59366;SDS011;45163;47.690;11.770;2023-04-25T05:22:24;4.33;;;2.43;;
59366;SDS011;45163;47.690;11.770;2023-04-25T05:24:50;3.57;;;2.00;;
59366;SDS011;45163;47.690;11.770;2023-04-25T05:27:17;3.37;;;2.20;;
59366;SDS011;45163;47.690;11.770;2023-04-25T05:29:44;3.47;;;2.10;;
59366;SDS011;45163;47.690;11.770;2023-04-25T05:32:10;3.90;;;2.20;;
59366;SDS011;45163;47.690;11.770;2023-04-25T05:34:36;4.27;;;2.47;;
59366;SDS011;45163;47.690;11.770;2023-04-25T05:37:02;3.50;;;2.63;;
59366;SDS011;45163;47.690;11.770;2023-04-25T05:39:28;2.90;;;2.27;;
59366;SDS011;45163;47.690;11.770;2023-04-25T05:41:55;5.13;;;2.40;;
59366;SDS011;45163;47.690;11.770;2023-04-25T05:44:21;4.73;;;2.20;;
59366;SDS011;45163;47.690;11.770;2023-04-25T05:46:47;2.77;;;2.30;;
59366;SDS011;45163;47.690;11.770;2023-04-25T05:49:13;3.83;;;2.10;;
59366;SDS011;45163;47.690;11.770;2023-04-25T05:51:39;4.13;;;2.60;;
59366;SDS011;45163;47.690;11.770;2023-04-25T05:54:05;5.30;;;2.70;;
59366;SDS011;45163;47.690;11.770;2023-04-25T05:56:31;5.53;;;2.30;;
59366;SDS011;45163;47.690;11.770;2023-04-25T05:58:57;5.00;;;2.60;;
59366;SDS011;45163;47.690;11.770;2023-04-25T06:01:23;4.33;;;2.33;;
59366;SDS011;45163;47.690;11.770;2023-04-25T06:03:49;5.63;;;2.40;;
59366;SDS011;45163;47.690;11.770;2023-04-25T06:06:16;5.37;;;2.27;;
59366;SDS011;45163;47.690;11.770;2023-04-25T06:08:42;3.83;;;2.13;;
59366;SDS011;45163;47.690;11.770;2023-04-25T06:11:08;5.23;;;2.30;;
59366;SDS011;45163;47.690;11.770;2023-04-25T06:13:34;3.17;;;2.43;;
59366;SDS011;45163;47.690;11.770;2023-04-25T06:16:00;4.83;;;2.27;;
59366;SDS011;45163;47.690;11.770;2023-04-25T06:18:26;3.50;;;1.93;;
59366;SDS011;45163;47.690;11.770;2023-04-25T06:20:52;8.93;;;2.53;;
59366;SDS011;45163;47.690;11.770;2023-04-25T06:23:18;4.97;;;2.13;;
59366;SDS011;45163;47.690;11.770;2023-04-25T06:25:44;3.33;;;2.50;;
59366;SDS011;45163;47.690;11.770;2023-04-25T06:28:10;13.97;;;3.20;;
59366;SDS011;45163;47.690;11.770;2023-04-25T06:30:36;7.03;;;2.70;;
59366;SDS011;45163;47.690;11.770;2023-04-25T06:33:02;4.17;;;2.17;;
59366;SDS011;45163;47.690;11.770;2023-04-25T06:35:28;2.20;;;1.97;;
59366;SDS011;45163;47.690;11.770;2023-04-25T06:37:54;8.77;;;2.47;;
59366;SDS011;45163;47.690;11.770;2023-04-25T06:40:20;12.80;;;2.90;;
59366;SDS011;45163;47.690;11.770;2023-04-25T06:42:46;10.83;;;2.87;;
59366;SDS011;45163;47.690;11.770;2023-04-25T06:45:12;10.63;;;3.13;;
59366;SDS011;45163;47.690;11.770;2023-04-25T06:47:38;4.17;;;2.47;;
59366;SDS011;45163;47.690;11.770;2023-04-25T06:50:04;6.50;;;2.57;;
59366;SDS011;45163;47.690;11.770;2023-04-25T06:52:31;7.07;;;2.40;;
59366;SDS011;45163;47.690;11.770;2023-04-25T06:54:57;4.00;;;2.50;;
59366;SDS011;45163;47.690;11.770;2023-04-25T06:57:23;3.83;;;2.37;;
59366;SDS011;45163;47.690;11.770;2023-04-25T06:59:50;8.33;;;3.13;;
59366;SDS011;45163;47.690;11.770;2023-04-25T07:02:15;25.97;;;3.60;;
59366;SDS011;45163;47.690;11.770;2023-04-25T07:04:41;10.60;;;2.70;;
59366;SDS011;45163;47.690;11.770;2023-04-25T07:07:07;7.93;;;2.50;;
59366;SDS011;45163;47.690;11.770;2023-04-25T07:09:33;6.97;;;2.43;;
59366;SDS011;45163;47.690;11.770;2023-04-25T07:12:00;4.43;;;2.10;;
59366;SDS011;45163;47.690;11.770;2023-04-25T07:14:29;2.93;;;1.70;;
59366;SDS011;45163;47.690;11.770;2023-04-25T07:16:55;6.33;;;1.90;;
59366;SDS011;45163;47.690;11.770;2023-04-25T07:19:22;6.27;;;2.03;;
59366;SDS011;45163;47.690;11.770;2023-04-25T07:21:52;2.33;;;1.80;;
59366;SDS011;45163;47.690;11.770;2023-04-25T07:24:18;4.27;;;2.00;;
59366;SDS011;45163;47.690;11.770;2023-04-25T07:26:44;4.63;;;1.80;;
59366;SDS011;45163;47.690;11.770;2023-04-25T07:29:11;5.47;;;2.00;;
59366;SDS011;45163;47.690;11.770;2023-04-25T07:31:37;6.60;;;2.27;;
59366;SDS011;45163;47.690;11.770;2023-04-25T07:34:03;5.53;;;1.93;;
59366;SDS011;45163;47.690;11.770;2023-04-25T07:36:29;2.70;;;1.70;;
59366;SDS011;45163;47.690;11.770;2023-04-25T07:38:56;3.53;;;1.87;;
59366;SDS011;45163;47.690;11.770;2023-04-25T07:41:22;4.77;;;1.80;;
59366;SDS011;45163;47.690;11.770;2023-04-25T07:43:48;2.43;;;1.50;;
59366;SDS011;45163;47.690;11.770;2023-04-25T07:46:14;3.93;;;1.90;;
59366;SDS011;45163;47.690;11.770;2023-04-25T07:48:40;5.10;;;1.90;;
59366;SDS011;45163;47.690;11.770;2023-04-25T07:51:06;2.97;;;1.70;;
59366;SDS011;45163;47.690;11.770;2023-04-25T07:53:32;5.17;;;2.00;;
59366;SDS011;45163;47.690;11.770;2023-04-25T07:56:00;2.60;;;1.70;;
59366;SDS011;45163;47.690;11.770;2023-04-25T07:58:26;2.27;;;1.57;;
